sensor_id;sensor_type;location;lat;lon;timestamp;temperature;humidity
6986;DHT22;3533;51.246;6.850;2023-03-01T00:01:54;19.20;36.20
6986;DHT22;3533;51.246;6.850;2023-03-01T00:04:20;19.20;36.30
6986;DHT22;3533;51.246;6.850;2023-03-01T00:06:45;19.20;36.30
6986;DHT22;3533;51.246;6.850;2023-03-01T00:09:12;19.30;36.30
6986;DHT22;3533;51.246;6.850;2023-03-01T00:11:38;19.30;36.30
6986;DHT22;3533;51.246;6.850;2023-03-01T00:14:04;19.30;36.30
6986;DHT22;3533;51.246;6.850;2023-03-01T00:16:35;19.20;36.30
6986;DHT22;3533;51.246;6.850;2023-03-01T00:19:02;19.20;36.20
6986;DHT22;3533;51.246;6.850;2023-03-01T00:21:28;19.20;36.20
6986;DHT22;3533;51.246;6.850;2023-03-01T00:23:54;19.20;36.30
6986;DHT22;3533;51.246;6.850;2023-03-01T00:26:21;19.20;36.20
6986;DHT22;3533;51.246;6.850;2023-03-01T00:28:47;19.20;36.30
6986;DHT22;3533;51.246;6.850;2023-03-01T00:31:15;19.20;36.30
6986;DHT22;3533;51.246;6.850;2023-03-01T00:33:42;19.20;36.20
6986;DHT22;3533;51.246;6.850;2023-03-01T00:36:09;19.20;36.30
6986;DHT22;3533;51.246;6.850;2023-03-01T00:38:39;19.20;36.60
6986;DHT22;3533;51.246;6.850;2023-03-01T00:41:06;19.20;36.20
6986;DHT22;3533;51.246;6.850;2023-03-01T00:43:33;19.20;36.30
6986;DHT22;3533;51.246;6.850;2023-03-01T00:46:23;19.20;36.20
6986;DHT22;3533;51.246;6.850;2023-03-01T00:48:49;19.20;36.20
6986;DHT22;3533;51.246;6.850;2023-03-01T00:51:23;19.20;36.20
6986;DHT22;3533;51.246;6.850;2023-03-01T00:53:58;19.20;36.20
6986;DHT22;3533;51.246;6.850;2023-03-01T00:56:24;19.20;36.20
6986;DHT22;3533;51.246;6.850;2023-03-01T00:58:50;19.20;36.30
6986;DHT22;3533;51.246;6.850;2023-03-01T01:01:18;19.20;36.30
6986;DHT22;3533;51.246;6.850;2023-03-01T01:04:02;19.20;36.30
6986;DHT22;3533;51.246;6.850;2023-03-01T01:06:31;19.20;36.30
6986;DHT22;3533;51.246;6.850;2023-03-01T01:08:57;19.20;36.30
6986;DHT22;3533;51.246;6.850;2023-03-01T01:11:25;19.20;36.30
6986;DHT22;3533;51.246;6.850;2023-03-01T01:13:51;19.20;36.30
6986;DHT22;3533;51.246;6.850;2023-03-01T01:16:18;19.20;36.30
6986;DHT22;3533;51.246;6.850;2023-03-01T01:18:44;19.10;36.30
6986;DHT22;3533;51.246;6.850;2023-03-01T01:21:13;19.20;36.40
6986;DHT22;3533;51.246;6.850;2023-03-01T01:23:39;19.20;36.30
6986;DHT22;3533;51.246;6.850;2023-03-01T01:26:07;19.20;36.30
6986;DHT22;3533;51.246;6.850;2023-03-01T01:28:33;19.20;36.30
6986;DHT22;3533;51.246;6.850;2023-03-01T01:30:59;19.20;36.30
6986;DHT22;3533;51.246;6.850;2023-03-01T01:33:24;19.20;36.30
6986;DHT22;3533;51.246;6.850;2023-03-01T01:35:50;19.20;36.30
6986;DHT22;3533;51.246;6.850;2023-03-01T01:38:16;19.20;36.30
6986;DHT22;3533;51.246;6.850;2023-03-01T01:40:45;19.20;36.30
6986;DHT22;3533;51.246;6.850;2023-03-01T01:43:24;19.20;36.30
6986;DHT22;3533;51.246;6.850;2023-03-01T01:45:51;19.20;36.30
6986;DHT22;3533;51.246;6.850;2023-03-01T01:48:22;19.20;36.30
6986;DHT22;3533;51.246;6.850;2023-03-01T01:51:01;19.20;36.30
6986;DHT22;3533;51.246;6.850;2023-03-01T01:53:26;19.20;36.30
6986;DHT22;3533;51.246;6.850;2023-03-01T01:55:55;19.20;36.30
6986;DHT22;3533;51.246;6.850;2023-03-01T01:58:24;19.20;37.10
6986;DHT22;3533;51.246;6.850;2023-03-01T02:00:52;19.20;36.40
6986;DHT22;3533;51.246;6.850;2023-03-01T02:03:26;19.20;36.40
6986;DHT22;3533;51.246;6.850;2023-03-01T02:06:04;19.20;36.40
6986;DHT22;3533;51.246;6.850;2023-03-01T02:08:35;19.10;36.30
6986;DHT22;3533;51.246;6.850;2023-03-01T02:11:02;19.20;36.30
6986;DHT22;3533;51.246;6.850;2023-03-01T02:13:30;19.20;36.30
6986;DHT22;3533;51.246;6.850;2023-03-01T02:15:56;19.20;36.40
6986;DHT22;3533;51.246;6.850;2023-03-01T02:18:23;19.20;36.30
6986;DHT22;3533;51.246;6.850;2023-03-01T02:23:36;19.20;37.10
6986;DHT22;3533;51.246;6.850;2023-03-01T02:28:51;19.20;36.30
6986;DHT22;3533;51.246;6.850;2023-03-01T02:31:19;19.10;36.20
6986;DHT22;3533;51.246;6.850;2023-03-01T02:34:04;19.20;36.30
6986;DHT22;3533;51.246;6.850;2023-03-01T02:36:36;19.20;36.30
6986;DHT22;3533;51.246;6.850;2023-03-01T02:39:04;19.20;36.30
6986;DHT22;3533;51.246;6.850;2023-03-01T02:41:36;19.10;36.30
6986;DHT22;3533;51.246;6.850;2023-03-01T02:44:03;19.20;36.30
6986;DHT22;3533;51.246;6.850;2023-03-01T02:46:28;19.20;36.30
6986;DHT22;3533;51.246;6.850;2023-03-01T02:48:56;19.10;36.30
6986;DHT22;3533;51.246;6.850;2023-03-01T02:57:26;19.20;36.30
6986;DHT22;3533;51.246;6.850;2023-03-01T02:59:54;19.10;36.20
6986;DHT22;3533;51.246;6.850;2023-03-01T03:02:26;19.10;36.40
6986;DHT22;3533;51.246;6.850;2023-03-01T03:05:11;19.10;36.50
6986;DHT22;3533;51.246;6.850;2023-03-01T03:07:39;19.10;36.30
6986;DHT22;3533;51.246;6.850;2023-03-01T03:10:08;19.10;36.30
6986;DHT22;3533;51.246;6.850;2023-03-01T03:12:37;19.10;36.30
6986;DHT22;3533;51.246;6.850;2023-03-01T03:15:04;19.10;36.30
6986;DHT22;3533;51.246;6.850;2023-03-01T03:17:35;19.10;36.30
6986;DHT22;3533;51.246;6.850;2023-03-01T03:20:01;19.10;36.30
6986;DHT22;3533;51.246;6.850;2023-03-01T03:22:26;19.10;36.20
6986;DHT22;3533;51.246;6.850;2023-03-01T03:24:54;19.10;36.30
6986;DHT22;3533;51.246;6.850;2023-03-01T03:27:19;19.10;36.30
6986;DHT22;3533;51.246;6.850;2023-03-01T03:29:45;19.10;36.20
6986;DHT22;3533;51.246;6.850;2023-03-01T03:32:10;19.10;36.20
6986;DHT22;3533;51.246;6.850;2023-03-01T03:34:36;19.10;36.20
6986;DHT22;3533;51.246;6.850;2023-03-01T03:37:01;19.10;36.20
6986;DHT22;3533;51.246;6.850;2023-03-01T03:39:28;19.10;36.20
6986;DHT22;3533;51.246;6.850;2023-03-01T03:42:00;19.10;36.20
6986;DHT22;3533;51.246;6.850;2023-03-01T03:44:25;19.10;36.30
6986;DHT22;3533;51.246;6.850;2023-03-01T03:46:51;19.10;36.30
6986;DHT22;3533;51.246;6.850;2023-03-01T03:49:16;19.10;36.30
6986;DHT22;3533;51.246;6.850;2023-03-01T03:51:42;19.10;37.00
6986;DHT22;3533;51.246;6.850;2023-03-01T03:54:07;19.10;36.20
6986;DHT22;3533;51.246;6.850;2023-03-01T03:56:33;19.10;36.30
6986;DHT22;3533;51.246;6.850;2023-03-01T03:58:58;19.10;36.30
6986;DHT22;3533;51.246;6.850;2023-03-01T04:01:24;19.10;36.30
6986;DHT22;3533;51.246;6.850;2023-03-01T04:03:49;19.10;37.00
6986;DHT22;3533;51.246;6.850;2023-03-01T04:06:19;19.10;36.20
6986;DHT22;3533;51.246;6.850;2023-03-01T04:08:45;19.10;36.30
6986;DHT22;3533;51.246;6.850;2023-03-01T04:11:11;19.10;36.20
6986;DHT22;3533;51.246;6.850;2023-03-01T04:13:54;19.10;36.20
6986;DHT22;3533;51.246;6.850;2023-03-01T04:16:20;19.10;36.20
6986;DHT22;3533;51.246;6.850;2023-03-01T04:18:45;19.10;36.20
6986;DHT22;3533;51.246;6.850;2023-03-01T04:21:11;19.10;36.20
6986;DHT22;3533;51.246;6.850;2023-03-01T04:23:37;19.10;36.20
6986;DHT22;3533;51.246;6.850;2023-03-01T04:26:03;19.10;36.20
6986;DHT22;3533;51.246;6.850;2023-03-01T04:28:32;19.10;37.00
6986;DHT22;3533;51.246;6.850;2023-03-01T04:31:03;19.10;36.90
6986;DHT22;3533;51.246;6.850;2023-03-01T04:36:10;19.10;36.20
6986;DHT22;3533;51.246;6.850;2023-03-01T04:38:39;19.10;36.10
6986;DHT22;3533;51.246;6.850;2023-03-01T04:41:10;19.10;36.10
6986;DHT22;3533;51.246;6.850;2023-03-01T04:43:37;19.10;36.10
6986;DHT22;3533;51.246;6.850;2023-03-01T04:46:05;19.10;36.10
6986;DHT22;3533;51.246;6.850;2023-03-01T04:48:32;19.10;36.10
6986;DHT22;3533;51.246;6.850;2023-03-01T04:51:00;19.10;36.10
6986;DHT22;3533;51.246;6.850;2023-03-01T04:53:27;19.10;36.10
6986;DHT22;3533;51.246;6.850;2023-03-01T04:55:57;19.10;36.10
6986;DHT22;3533;51.246;6.850;2023-03-01T04:58:24;19.10;36.10
6986;DHT22;3533;51.246;6.850;2023-03-01T05:00:50;19.10;36.10
6986;DHT22;3533;51.246;6.850;2023-03-01T05:03:16;19.10;36.10
6986;DHT22;3533;51.246;6.850;2023-03-01T05:05:44;19.10;36.00
6986;DHT22;3533;51.246;6.850;2023-03-01T05:08:10;19.20;36.10
6986;DHT22;3533;51.246;6.850;2023-03-01T05:10:44;19.20;36.10
6986;DHT22;3533;51.246;6.850;2023-03-01T05:13:11;19.20;36.00
6986;DHT22;3533;51.246;6.850;2023-03-01T05:15:38;19.20;36.00
6986;DHT22;3533;51.246;6.850;2023-03-01T05:18:04;19.20;36.00
6986;DHT22;3533;51.246;6.850;2023-03-01T05:20:32;19.30;36.00
6986;DHT22;3533;51.246;6.850;2023-03-01T05:23:01;19.30;36.00
6986;DHT22;3533;51.246;6.850;2023-03-01T05:25:31;19.30;35.90
6986;DHT22;3533;51.246;6.850;2023-03-01T05:28:02;19.30;35.90
6986;DHT22;3533;51.246;6.850;2023-03-01T05:30:31;19.30;35.90
6986;DHT22;3533;51.246;6.850;2023-03-01T05:32:58;19.30;35.90
6986;DHT22;3533;51.246;6.850;2023-03-01T05:35:24;19.30;35.90
6986;DHT22;3533;51.246;6.850;2023-03-01T05:37:50;19.30;35.90
6986;DHT22;3533;51.246;6.850;2023-03-01T05:40:18;19.30;35.90
6986;DHT22;3533;51.246;6.850;2023-03-01T05:42:55;19.30;35.90
6986;DHT22;3533;51.246;6.850;2023-03-01T05:45:22;19.40;36.00
6986;DHT22;3533;51.246;6.850;2023-03-01T05:47:49;19.30;35.90
6986;DHT22;3533;51.246;6.850;2023-03-01T05:52:50;19.30;36.00
6986;DHT22;3533;51.246;6.850;2023-03-01T05:55:17;19.30;36.00
6986;DHT22;3533;51.246;6.850;2023-03-01T05:57:43;19.30;36.00
6986;DHT22;3533;51.246;6.850;2023-03-01T06:00:10;19.30;35.90
6986;DHT22;3533;51.246;6.850;2023-03-01T06:02:37;19.30;36.00
6986;DHT22;3533;51.246;6.850;2023-03-01T06:05:04;19.30;36.00
6986;DHT22;3533;51.246;6.850;2023-03-01T06:07:30;19.30;36.00
6986;DHT22;3533;51.246;6.850;2023-03-01T06:09:55;19.30;36.00
6986;DHT22;3533;51.246;6.850;2023-03-01T06:12:21;19.30;36.00
6986;DHT22;3533;51.246;6.850;2023-03-01T06:14:46;19.30;35.90
6986;DHT22;3533;51.246;6.850;2023-03-01T06:17:15;19.30;36.00
6986;DHT22;3533;51.246;6.850;2023-03-01T06:19:40;19.30;36.00
6986;DHT22;3533;51.246;6.850;2023-03-01T06:22:06;19.30;35.90
6986;DHT22;3533;51.246;6.850;2023-03-01T06:24:32;19.30;35.90
6986;DHT22;3533;51.246;6.850;2023-03-01T06:26:58;19.30;36.00
6986;DHT22;3533;51.246;6.850;2023-03-01T06:29:24;19.30;35.90
6986;DHT22;3533;51.246;6.850;2023-03-01T06:31:49;19.30;35.90
6986;DHT22;3533;51.246;6.850;2023-03-01T06:34:15;19.30;35.90
6986;DHT22;3533;51.246;6.850;2023-03-01T06:36:40;19.30;35.90
6986;DHT22;3533;51.246;6.850;2023-03-01T06:39:06;19.30;35.90
6986;DHT22;3533;51.246;6.850;2023-03-01T06:41:32;19.30;35.90
6986;DHT22;3533;51.246;6.850;2023-03-01T06:43:59;19.30;35.90
6986;DHT22;3533;51.246;6.850;2023-03-01T06:46:25;19.30;35.90
6986;DHT22;3533;51.246;6.850;2023-03-01T06:48:50;19.30;35.90
6986;DHT22;3533;51.246;6.850;2023-03-01T06:51:16;19.30;35.90
6986;DHT22;3533;51.246;6.850;2023-03-01T06:53:41;19.30;35.90
6986;DHT22;3533;51.246;6.850;2023-03-01T06:56:07;19.30;35.90
6986;DHT22;3533;51.246;6.850;2023-03-01T06:58:32;19.30;35.90
6986;DHT22;3533;51.246;6.850;2023-03-01T07:00:58;19.30;35.90
6986;DHT22;3533;51.246;6.850;2023-03-01T07:03:23;19.30;35.80
6986;DHT22;3533;51.246;6.850;2023-03-01T07:05:50;19.30;35.90
6986;DHT22;3533;51.246;6.850;2023-03-01T07:08:18;19.30;35.80
6986;DHT22;3533;51.246;6.850;2023-03-01T07:10:44;19.30;35.80
6986;DHT22;3533;51.246;6.850;2023-03-01T07:13:09;19.30;35.80
6986;DHT22;3533;51.246;6.850;2023-03-01T07:15:35;19.30;35.70
6986;DHT22;3533;51.246;6.850;2023-03-01T07:18:01;19.30;35.70
6986;DHT22;3533;51.246;6.850;2023-03-01T07:20:26;19.30;35.70
6986;DHT22;3533;51.246;6.850;2023-03-01T07:22:52;19.30;35.70
6986;DHT22;3533;51.246;6.850;2023-03-01T07:25:18;19.30;35.70
6986;DHT22;3533;51.246;6.850;2023-03-01T07:27:48;19.30;35.70
6986;DHT22;3533;51.246;6.850;2023-03-01T07:30:13;19.30;35.70
6986;DHT22;3533;51.246;6.850;2023-03-01T07:32:39;19.30;35.70
6986;DHT22;3533;51.246;6.850;2023-03-01T07:35:05;19.30;35.70
6986;DHT22;3533;51.246;6.850;2023-03-01T07:37:30;19.30;35.60
6986;DHT22;3533;51.246;6.850;2023-03-01T07:39:56;19.30;35.70
6986;DHT22;3533;51.246;6.850;2023-03-01T07:42:22;19.30;35.60
6986;DHT22;3533;51.246;6.850;2023-03-01T07:44:48;19.20;35.60
6986;DHT22;3533;51.246;6.850;2023-03-01T07:47:13;19.30;35.70
6986;DHT22;3533;51.246;6.850;2023-03-01T07:49:39;19.20;36.30
6986;DHT22;3533;51.246;6.850;2023-03-01T07:52:04;19.30;35.70
6986;DHT22;3533;51.246;6.850;2023-03-01T07:54:30;19.20;35.50
6986;DHT22;3533;51.246;6.850;2023-03-01T07:56:56;19.30;35.70
6986;DHT22;3533;51.246;6.850;2023-03-01T07:59:22;19.30;35.70
6986;DHT22;3533;51.246;6.850;2023-03-01T08:01:54;19.30;35.70
6986;DHT22;3533;51.246;6.850;2023-03-01T08:04:20;19.30;35.60
6986;DHT22;3533;51.246;6.850;2023-03-01T08:06:45;19.30;35.60
6986;DHT22;3533;51.246;6.850;2023-03-01T08:09:11;19.30;35.60
6986;DHT22;3533;51.246;6.850;2023-03-01T08:11:36;19.30;35.60
6986;DHT22;3533;51.246;6.850;2023-03-01T08:14:02;19.30;35.50
6986;DHT22;3533;51.246;6.850;2023-03-01T08:16:28;19.30;35.40
6986;DHT22;3533;51.246;6.850;2023-03-01T08:18:53;19.30;35.40
6986;DHT22;3533;51.246;6.850;2023-03-01T08:21:22;19.30;35.20
6986;DHT22;3533;51.246;6.850;2023-03-01T08:23:47;19.30;35.10
6986;DHT22;3533;51.246;6.850;2023-03-01T08:26:20;19.20;35.10
6986;DHT22;3533;51.246;6.850;2023-03-01T08:28:47;19.20;34.90
6986;DHT22;3533;51.246;6.850;2023-03-01T08:31:21;19.20;34.90
6986;DHT22;3533;51.246;6.850;2023-03-01T08:33:48;19.20;34.90
6986;DHT22;3533;51.246;6.850;2023-03-01T08:36:17;19.20;35.60
6986;DHT22;3533;51.246;6.850;2023-03-01T08:38:43;19.20;34.70
6986;DHT22;3533;51.246;6.850;2023-03-01T08:41:09;19.20;34.70
6986;DHT22;3533;51.246;6.850;2023-03-01T08:43:35;19.20;34.50
6986;DHT22;3533;51.246;6.850;2023-03-01T08:46:00;19.20;34.50
6986;DHT22;3533;51.246;6.850;2023-03-01T08:48:28;19.20;34.50
6986;DHT22;3533;51.246;6.850;2023-03-01T08:50:53;19.20;34.30
6986;DHT22;3533;51.246;6.850;2023-03-01T08:53:19;19.20;34.30
6986;DHT22;3533;51.246;6.850;2023-03-01T08:55:44;19.20;34.30
6986;DHT22;3533;51.246;6.850;2023-03-01T08:58:10;19.20;34.30
6986;DHT22;3533;51.246;6.850;2023-03-01T09:00:35;19.20;34.20
6986;DHT22;3533;51.246;6.850;2023-03-01T09:03:01;19.20;34.20
6986;DHT22;3533;51.246;6.850;2023-03-01T09:05:27;19.20;34.10
6986;DHT22;3533;51.246;6.850;2023-03-01T09:07:53;19.20;34.00
6986;DHT22;3533;51.246;6.850;2023-03-01T09:10:18;19.20;34.00
6986;DHT22;3533;51.246;6.850;2023-03-01T09:12:44;19.20;34.00
6986;DHT22;3533;51.246;6.850;2023-03-01T09:15:10;19.20;33.90
6986;DHT22;3533;51.246;6.850;2023-03-01T09:17:35;19.20;33.80
6986;DHT22;3533;51.246;6.850;2023-03-01T09:20:01;19.20;33.90
6986;DHT22;3533;51.246;6.850;2023-03-01T09:22:26;19.20;33.90
6986;DHT22;3533;51.246;6.850;2023-03-01T09:24:52;19.20;33.80
6986;DHT22;3533;51.246;6.850;2023-03-01T09:27:17;19.20;33.80
6986;DHT22;3533;51.246;6.850;2023-03-01T09:29:44;19.20;33.80
6986;DHT22;3533;51.246;6.850;2023-03-01T09:32:10;19.30;33.90
6986;DHT22;3533;51.246;6.850;2023-03-01T09:34:35;19.30;33.90
6986;DHT22;3533;51.246;6.850;2023-03-01T09:37:24;19.30;33.80
6986;DHT22;3533;51.246;6.850;2023-03-01T09:39:49;19.30;33.80
6986;DHT22;3533;51.246;6.850;2023-03-01T09:42:15;19.30;33.80
6986;DHT22;3533;51.246;6.850;2023-03-01T09:44:54;19.30;33.80
6986;DHT22;3533;51.246;6.850;2023-03-01T09:47:28;19.30;33.80
6986;DHT22;3533;51.246;6.850;2023-03-01T09:50:13;19.30;33.90
6986;DHT22;3533;51.246;6.850;2023-03-01T09:53:01;19.20;33.80
6986;DHT22;3533;51.246;6.850;2023-03-01T09:55:33;19.20;33.80
6986;DHT22;3533;51.246;6.850;2023-03-01T10:00:50;19.20;33.90
6986;DHT22;3533;51.246;6.850;2023-03-01T10:03:22;19.20;33.90
6986;DHT22;3533;51.246;6.850;2023-03-01T10:06:04;19.20;33.90
6986;DHT22;3533;51.246;6.850;2023-03-01T10:08:34;19.20;34.00
6986;DHT22;3533;51.246;6.850;2023-03-01T10:11:04;19.20;34.00
6986;DHT22;3533;51.246;6.850;2023-03-01T10:13:59;19.20;34.00
6986;DHT22;3533;51.246;6.850;2023-03-01T10:16:40;19.20;34.10
6986;DHT22;3533;51.246;6.850;2023-03-01T10:19:14;19.20;34.00
6986;DHT22;3533;51.246;6.850;2023-03-01T10:21:44;19.10;34.00
6986;DHT22;3533;51.246;6.850;2023-03-01T10:24:13;19.10;34.00
6986;DHT22;3533;51.246;6.850;2023-03-01T10:26:54;19.10;34.00
6986;DHT22;3533;51.246;6.850;2023-03-01T10:29:31;19.10;34.10
6986;DHT22;3533;51.246;6.850;2023-03-01T10:31:59;19.10;34.00
6986;DHT22;3533;51.246;6.850;2023-03-01T10:34:31;19.10;34.00
6986;DHT22;3533;51.246;6.850;2023-03-01T10:37:07;19.10;34.00
6986;DHT22;3533;51.246;6.850;2023-03-01T10:39:34;19.10;34.10
6986;DHT22;3533;51.246;6.850;2023-03-01T10:42:02;19.10;34.10
6986;DHT22;3533;51.246;6.850;2023-03-01T10:44:44;19.10;34.00
6986;DHT22;3533;51.246;6.850;2023-03-01T10:47:16;19.10;34.10
6986;DHT22;3533;51.246;6.850;2023-03-01T10:49:53;19.10;34.10
6986;DHT22;3533;51.246;6.850;2023-03-01T10:52:21;19.10;34.10
6986;DHT22;3533;51.246;6.850;2023-03-01T10:55:00;19.10;34.10
6986;DHT22;3533;51.246;6.850;2023-03-01T10:57:34;19.10;34.10
6986;DHT22;3533;51.246;6.850;2023-03-01T11:00:24;19.10;34.00
6986;DHT22;3533;51.246;6.850;2023-03-01T11:03:03;19.10;34.00
6986;DHT22;3533;51.246;6.850;2023-03-01T11:05:29;19.10;34.00
6986;DHT22;3533;51.246;6.850;2023-03-01T11:07:59;19.10;33.90
6986;DHT22;3533;51.246;6.850;2023-03-01T11:10:33;19.10;33.80
6986;DHT22;3533;51.246;6.850;2023-03-01T11:13:16;19.10;33.80
6986;DHT22;3533;51.246;6.850;2023-03-01T11:15:43;19.10;33.80
6986;DHT22;3533;51.246;6.850;2023-03-01T11:18:20;19.10;33.80
6986;DHT22;3533;51.246;6.850;2023-03-01T11:20:46;19.10;33.80
6986;DHT22;3533;51.246;6.850;2023-03-01T11:23:14;19.10;33.90
6986;DHT22;3533;51.246;6.850;2023-03-01T11:25:45;19.20;33.90
6986;DHT22;3533;51.246;6.850;2023-03-01T11:28:17;19.10;33.80
6986;DHT22;3533;51.246;6.850;2023-03-01T11:30:51;19.20;33.90
6986;DHT22;3533;51.246;6.850;2023-03-01T11:33:42;19.10;33.80
6986;DHT22;3533;51.246;6.850;2023-03-01T11:38:42;19.20;33.90
6986;DHT22;3533;51.246;6.850;2023-03-01T11:41:17;19.20;33.90
6986;DHT22;3533;51.246;6.850;2023-03-01T11:49:34;19.10;33.80
6986;DHT22;3533;51.246;6.850;2023-03-01T11:52:41;19.10;33.90
6986;DHT22;3533;51.246;6.850;2023-03-01T12:06:42;19.10;34.00
6986;DHT22;3533;51.246;6.850;2023-03-01T12:09:38;19.10;34.00
6986;DHT22;3533;51.246;6.850;2023-03-01T12:15:53;19.10;34.00
6986;DHT22;3533;51.246;6.850;2023-03-01T12:18:57;19.10;34.10
6986;DHT22;3533;51.246;6.850;2023-03-01T12:24:29;19.10;34.10
6986;DHT22;3533;51.246;6.850;2023-03-01T12:27:06;19.10;34.10
6986;DHT22;3533;51.246;6.850;2023-03-01T12:29:42;19.10;34.10
6986;DHT22;3533;51.246;6.850;2023-03-01T12:32:22;19.10;34.10
6986;DHT22;3533;51.246;6.850;2023-03-01T12:37:48;19.10;34.10
6986;DHT22;3533;51.246;6.850;2023-03-01T12:48:47;19.10;34.00
6986;DHT22;3533;51.246;6.850;2023-03-01T12:51:20;19.10;34.00
6986;DHT22;3533;51.246;6.850;2023-03-01T12:53:50;19.10;34.00
6986;DHT22;3533;51.246;6.850;2023-03-01T12:56:25;19.20;34.00
6986;DHT22;3533;51.246;6.850;2023-03-01T12:59:06;19.10;33.90
6986;DHT22;3533;51.246;6.850;2023-03-01T13:02:05;19.20;33.90
6986;DHT22;3533;51.246;6.850;2023-03-01T13:10:00;19.20;33.90
6986;DHT22;3533;51.246;6.850;2023-03-01T13:12:52;19.20;33.90
6986;DHT22;3533;51.246;6.850;2023-03-01T13:18:02;19.20;33.90
6986;DHT22;3533;51.246;6.850;2023-03-01T13:20:34;19.20;33.90
6986;DHT22;3533;51.246;6.850;2023-03-01T13:23:25;19.20;33.90
6986;DHT22;3533;51.246;6.850;2023-03-01T13:33:45;19.20;34.00
6986;DHT22;3533;51.246;6.850;2023-03-01T13:46:56;19.10;34.10
6986;DHT22;3533;51.246;6.850;2023-03-01T13:49:27;19.10;34.10
6986;DHT22;3533;51.246;6.850;2023-03-01T13:51:53;19.10;34.10
6986;DHT22;3533;51.246;6.850;2023-03-01T13:54:32;19.10;34.00
6986;DHT22;3533;51.246;6.850;2023-03-01T13:56:59;19.10;34.10
6986;DHT22;3533;51.246;6.850;2023-03-01T13:59:25;19.10;34.10
6986;DHT22;3533;51.246;6.850;2023-03-01T14:02:00;19.10;34.10
6986;DHT22;3533;51.246;6.850;2023-03-01T14:04:29;19.10;34.10
6986;DHT22;3533;51.246;6.850;2023-03-01T14:07:19;19.10;34.10
6986;DHT22;3533;51.246;6.850;2023-03-01T14:09:47;19.10;34.10
6986;DHT22;3533;51.246;6.850;2023-03-01T14:17:38;19.10;34.00
6986;DHT22;3533;51.246;6.850;2023-03-01T14:20:18;19.10;34.00
6986;DHT22;3533;51.246;6.850;2023-03-01T14:22:45;19.10;34.10
6986;DHT22;3533;51.246;6.850;2023-03-01T14:25:32;19.10;34.10
6986;DHT22;3533;51.246;6.850;2023-03-01T14:28:17;19.10;34.00
6986;DHT22;3533;51.246;6.850;2023-03-01T14:30:49;19.20;34.10
6986;DHT22;3533;51.246;6.850;2023-03-01T14:33:25;19.10;34.10
6986;DHT22;3533;51.246;6.850;2023-03-01T14:36:14;19.20;34.00
6986;DHT22;3533;51.246;6.850;2023-03-01T14:38:42;19.20;34.00
6986;DHT22;3533;51.246;6.850;2023-03-01T14:41:16;19.10;34.00
6986;DHT22;3533;51.246;6.850;2023-03-01T14:43:49;19.10;34.10
6986;DHT22;3533;51.246;6.850;2023-03-01T14:46:44;19.20;34.10
6986;DHT22;3533;51.246;6.850;2023-03-01T14:49:17;19.10;34.00
6986;DHT22;3533;51.246;6.850;2023-03-01T14:51:57;19.10;34.00
6986;DHT22;3533;51.246;6.850;2023-03-01T14:54:38;19.10;34.10
6986;DHT22;3533;51.246;6.850;2023-03-01T14:57:05;19.10;34.10
6986;DHT22;3533;51.246;6.850;2023-03-01T14:59:33;19.10;34.10
6986;DHT22;3533;51.246;6.850;2023-03-01T15:01:59;19.10;34.10
6986;DHT22;3533;51.246;6.850;2023-03-01T15:04:27;19.10;34.10
6986;DHT22;3533;51.246;6.850;2023-03-01T15:06:54;19.10;34.10
6986;DHT22;3533;51.246;6.850;2023-03-01T15:09:21;19.10;34.10
6986;DHT22;3533;51.246;6.850;2023-03-01T15:11:47;19.10;34.10
6986;DHT22;3533;51.246;6.850;2023-03-01T15:14:42;19.10;34.10
6986;DHT22;3533;51.246;6.850;2023-03-01T15:17:37;19.10;34.10
6986;DHT22;3533;51.246;6.850;2023-03-01T15:20:16;19.10;34.10
6986;DHT22;3533;51.246;6.850;2023-03-01T15:22:46;19.10;34.20
6986;DHT22;3533;51.246;6.850;2023-03-01T15:25:19;19.10;34.20
6986;DHT22;3533;51.246;6.850;2023-03-01T15:27:49;19.10;34.20
6986;DHT22;3533;51.246;6.850;2023-03-01T15:30:22;19.10;34.20
6986;DHT22;3533;51.246;6.850;2023-03-01T15:32:48;19.10;34.20
6986;DHT22;3533;51.246;6.850;2023-03-01T15:35:38;19.10;34.20
6986;DHT22;3533;51.246;6.850;2023-03-01T15:38:22;19.10;34.20
6986;DHT22;3533;51.246;6.850;2023-03-01T15:40:51;19.10;34.30
6986;DHT22;3533;51.246;6.850;2023-03-01T15:43:56;19.00;34.20
6986;DHT22;3533;51.246;6.850;2023-03-01T15:46:35;19.10;34.30
6986;DHT22;3533;51.246;6.850;2023-03-01T15:49:25;19.00;34.20
6986;DHT22;3533;51.246;6.850;2023-03-01T15:51:53;19.10;34.30
6986;DHT22;3533;51.246;6.850;2023-03-01T15:54:22;19.10;34.30
6986;DHT22;3533;51.246;6.850;2023-03-01T15:56:49;19.00;34.30
6986;DHT22;3533;51.246;6.850;2023-03-01T15:59:15;19.10;34.30
6986;DHT22;3533;51.246;6.850;2023-03-01T16:01:41;19.10;34.30
6986;DHT22;3533;51.246;6.850;2023-03-01T16:04:08;19.10;34.30
6986;DHT22;3533;51.246;6.850;2023-03-01T16:06:34;19.10;34.30
6986;DHT22;3533;51.246;6.850;2023-03-01T16:09:01;19.10;34.30
6986;DHT22;3533;51.246;6.850;2023-03-01T16:11:28;19.10;35.10
6986;DHT22;3533;51.246;6.850;2023-03-01T16:13:53;19.10;34.20
6986;DHT22;3533;51.246;6.850;2023-03-01T16:16:19;19.10;34.20
6986;DHT22;3533;51.246;6.850;2023-03-01T16:18:47;19.10;34.30
6986;DHT22;3533;51.246;6.850;2023-03-01T16:21:21;19.10;34.20
6986;DHT22;3533;51.246;6.850;2023-03-01T16:23:47;19.10;34.30
6986;DHT22;3533;51.246;6.850;2023-03-01T16:26:13;19.10;34.20
6986;DHT22;3533;51.246;6.850;2023-03-01T16:28:41;19.10;34.40
6986;DHT22;3533;51.246;6.850;2023-03-01T16:31:06;19.10;34.30
6986;DHT22;3533;51.246;6.850;2023-03-01T16:33:32;19.10;34.30
6986;DHT22;3533;51.246;6.850;2023-03-01T16:36:00;19.10;34.30
6986;DHT22;3533;51.246;6.850;2023-03-01T16:38:30;19.10;34.30
6986;DHT22;3533;51.246;6.850;2023-03-01T16:40:56;19.10;34.30
6986;DHT22;3533;51.246;6.850;2023-03-01T16:43:22;19.10;34.30
6986;DHT22;3533;51.246;6.850;2023-03-01T16:45:47;19.10;34.30
6986;DHT22;3533;51.246;6.850;2023-03-01T16:48:13;19.10;34.40
6986;DHT22;3533;51.246;6.850;2023-03-01T16:50:39;19.10;34.30
6986;DHT22;3533;51.246;6.850;2023-03-01T16:53:05;19.10;34.30
6986;DHT22;3533;51.246;6.850;2023-03-01T16:55:31;19.10;34.30
6986;DHT22;3533;51.246;6.850;2023-03-01T16:57:56;19.10;34.30
6986;DHT22;3533;51.246;6.850;2023-03-01T17:00:22;19.10;34.40
6986;DHT22;3533;51.246;6.850;2023-03-01T17:02:48;19.10;34.40
6986;DHT22;3533;51.246;6.850;2023-03-01T17:05:14;19.10;34.40
6986;DHT22;3533;51.246;6.850;2023-03-01T17:07:40;19.10;34.40
6986;DHT22;3533;51.246;6.850;2023-03-01T17:10:07;19.10;34.50
6986;DHT22;3533;51.246;6.850;2023-03-01T17:12:34;19.10;34.50
6986;DHT22;3533;51.246;6.850;2023-03-01T17:14:59;19.10;34.50
6986;DHT22;3533;51.246;6.850;2023-03-01T17:17:25;19.10;34.50
6986;DHT22;3533;51.246;6.850;2023-03-01T17:19:51;19.10;34.50
6986;DHT22;3533;51.246;6.850;2023-03-01T17:22:16;19.10;34.60
6986;DHT22;3533;51.246;6.850;2023-03-01T17:24:43;19.10;35.30
6986;DHT22;3533;51.246;6.850;2023-03-01T17:27:11;19.10;34.60
6986;DHT22;3533;51.246;6.850;2023-03-01T17:29:38;19.10;34.60
6986;DHT22;3533;51.246;6.850;2023-03-01T17:32:04;19.10;34.70
6986;DHT22;3533;51.246;6.850;2023-03-01T17:34:31;19.10;34.70
6986;DHT22;3533;51.246;6.850;2023-03-01T17:36:57;19.10;34.60
6986;DHT22;3533;51.246;6.850;2023-03-01T17:39:23;19.10;34.60
6986;DHT22;3533;51.246;6.850;2023-03-01T17:41:55;19.00;34.60
6986;DHT22;3533;51.246;6.850;2023-03-01T17:44:21;19.00;34.60
6986;DHT22;3533;51.246;6.850;2023-03-01T17:46:46;19.10;34.60
6986;DHT22;3533;51.246;6.850;2023-03-01T17:49:12;19.10;34.70